sensor_id;sensor_type;location;lat;lon;timestamp;P1;durP1;ratioP1;P2;durP2;ratioP2
3747;SDS011;1889;50.058;8.688;2022-11-20T00:01:45;14.05;;;9.18;;
3747;SDS011;1889;50.058;8.688;2022-11-20T00:04:14;14.53;;;9.93;;
3747;SDS011;1889;50.058;8.688;2022-11-20T00:06:43;13.25;;;8.75;;
3747;SDS011;1889;50.058;8.688;2022-11-20T00:09:13;15.38;;;10.20;;
3747;SDS011;1889;50.058;8.688;2022-11-20T00:11:42;16.73;;;9.85;;
3747;SDS011;1889;50.058;8.688;2022-11-20T00:14:11;13.83;;;9.05;;
3747;SDS011;1889;50.058;8.688;2022-11-20T00:16:41;15.25;;;9.43;;
3747;SDS011;1889;50.058;8.688;2022-11-20T00:19:10;15.20;;;10.05;;
3747;SDS011;1889;50.058;8.688;2022-11-20T00:21:39;15.48;;;9.18;;
3747;SDS011;1889;50.058;8.688;2022-11-20T00:24:09;14.83;;;9.88;;
3747;SDS011;1889;50.058;8.688;2022-11-20T00:26:38;12.50;;;8.73;;
3747;SDS011;1889;50.058;8.688;2022-11-20T00:29:08;13.32;;;9.55;;
3747;SDS011;1889;50.058;8.688;2022-11-20T00:31:38;15.10;;;9.88;;
3747;SDS011;1889;50.058;8.688;2022-11-20T00:34:08;14.05;;;9.23;;
3747;SDS011;1889;50.058;8.688;2022-11-20T00:36:38;14.78;;;9.50;;
3747;SDS011;1889;50.058;8.688;2022-11-20T00:39:07;14.13;;;9.63;;
3747;SDS011;1889;50.058;8.688;2022-11-20T00:41:36;14.70;;;9.33;;
3747;SDS011;1889;50.058;8.688;2022-11-20T00:44:06;17.67;;;9.58;;
3747;SDS011;1889;50.058;8.688;2022-11-20T00:46:35;18.77;;;10.32;;
3747;SDS011;1889;50.058;8.688;2022-11-20T00:49:04;15.80;;;10.35;;
3747;SDS011;1889;50.058;8.688;2022-11-20T00:51:34;16.77;;;10.13;;
3747;SDS011;1889;50.058;8.688;2022-11-20T00:54:03;15.43;;;9.38;;
3747;SDS011;1889;50.058;8.688;2022-11-20T00:56:32;15.40;;;9.23;;
3747;SDS011;1889;50.058;8.688;2022-11-20T00:59:02;14.58;;;9.28;;
3747;SDS011;1889;50.058;8.688;2022-11-20T01:01:31;16.17;;;10.30;;
3747;SDS011;1889;50.058;8.688;2022-11-20T01:04:00;14.15;;;9.18;;
3747;SDS011;1889;50.058;8.688;2022-11-20T01:06:30;15.98;;;10.00;;
3747;SDS011;1889;50.058;8.688;2022-11-20T01:09:09;16.70;;;10.80;;
3747;SDS011;1889;50.058;8.688;2022-11-20T01:11:41;17.17;;;9.95;;
3747;SDS011;1889;50.058;8.688;2022-11-20T01:14:16;14.60;;;9.55;;
3747;SDS011;1889;50.058;8.688;2022-11-20T01:16:48;14.83;;;9.35;;
3747;SDS011;1889;50.058;8.688;2022-11-20T01:19:20;13.38;;;9.43;;
3747;SDS011;1889;50.058;8.688;2022-11-20T01:21:52;14.83;;;9.20;;
3747;SDS011;1889;50.058;8.688;2022-11-20T01:24:22;16.82;;;9.75;;
3747;SDS011;1889;50.058;8.688;2022-11-20T01:26:51;14.13;;;9.73;;
3747;SDS011;1889;50.058;8.688;2022-11-20T01:29:22;15.95;;;9.08;;
3747;SDS011;1889;50.058;8.688;2022-11-20T01:31:52;15.13;;;9.63;;
3747;SDS011;1889;50.058;8.688;2022-11-20T01:34:22;15.40;;;9.65;;
3747;SDS011;1889;50.058;8.688;2022-11-20T01:36:52;12.98;;;8.73;;
3747;SDS011;1889;50.058;8.688;2022-11-20T01:39:23;14.50;;;8.90;;
3747;SDS011;1889;50.058;8.688;2022-11-20T01:41:54;15.20;;;10.43;;
3747;SDS011;1889;50.058;8.688;2022-11-20T01:44:49;14.23;;;9.30;;
3747;SDS011;1889;50.058;8.688;2022-11-20T01:47:40;16.80;;;9.70;;
3747;SDS011;1889;50.058;8.688;2022-11-20T01:50:16;14.60;;;9.40;;
3747;SDS011;1889;50.058;8.688;2022-11-20T01:52:48;15.20;;;9.48;;
3747;SDS011;1889;50.058;8.688;2022-11-20T01:55:22;15.83;;;9.70;;
3747;SDS011;1889;50.058;8.688;2022-11-20T01:57:56;15.83;;;10.38;;
3747;SDS011;1889;50.058;8.688;2022-11-20T02:00:27;14.00;;;8.90;;
3747;SDS011;1889;50.058;8.688;2022-11-20T02:02:57;14.15;;;9.35;;
3747;SDS011;1889;50.058;8.688;2022-11-20T02:05:31;17.73;;;9.70;;
3747;SDS011;1889;50.058;8.688;2022-11-20T02:08:04;14.90;;;9.80;;
3747;SDS011;1889;50.058;8.688;2022-11-20T02:10:34;18.52;;;10.82;;
3747;SDS011;1889;50.058;8.688;2022-11-20T02:13:04;16.32;;;10.32;;
3747;SDS011;1889;50.058;8.688;2022-11-20T02:15:51;15.28;;;9.15;;
3747;SDS011;1889;50.058;8.688;2022-11-20T02:18:20;15.00;;;9.63;;
3747;SDS011;1889;50.058;8.688;2022-11-20T02:20:53;14.65;;;8.83;;
3747;SDS011;1889;50.058;8.688;2022-11-20T02:25:56;17.48;;;9.43;;
3747;SDS011;1889;50.058;8.688;2022-11-20T02:28:26;15.95;;;9.70;;
3747;SDS011;1889;50.058;8.688;2022-11-20T02:30:56;14.18;;;9.05;;
3747;SDS011;1889;50.058;8.688;2022-11-20T02:33:25;14.30;;;9.85;;
3747;SDS011;1889;50.058;8.688;2022-11-20T02:35:55;13.78;;;9.28;;
3747;SDS011;1889;50.058;8.688;2022-11-20T02:38:24;14.68;;;9.55;;
3747;SDS011;1889;50.058;8.688;2022-11-20T02:40:53;16.27;;;9.63;;
3747;SDS011;1889;50.058;8.688;2022-11-20T02:43:23;14.23;;;9.90;;
3747;SDS011;1889;50.058;8.688;2022-11-20T02:45:52;16.40;;;10.03;;
3747;SDS011;1889;50.058;8.688;2022-11-20T02:48:21;18.45;;;10.32;;
3747;SDS011;1889;50.058;8.688;2022-11-20T02:50:51;15.60;;;9.70;;
3747;SDS011;1889;50.058;8.688;2022-11-20T02:53:20;15.85;;;9.35;;
3747;SDS011;1889;50.058;8.688;2022-11-20T02:55:49;16.30;;;9.83;;
3747;SDS011;1889;50.058;8.688;2022-11-20T02:58:19;14.43;;;9.40;;
3747;SDS011;1889;50.058;8.688;2022-11-20T03:00:48;15.63;;;9.83;;
3747;SDS011;1889;50.058;8.688;2022-11-20T03:03:17;17.75;;;10.90;;
3747;SDS011;1889;50.058;8.688;2022-11-20T03:05:47;15.38;;;9.58;;
3747;SDS011;1889;50.058;8.688;2022-11-20T03:08:16;12.78;;;9.23;;
3747;SDS011;1889;50.058;8.688;2022-11-20T03:10:45;13.53;;;9.45;;
3747;SDS011;1889;50.058;8.688;2022-11-20T03:13:15;15.80;;;9.80;;
3747;SDS011;1889;50.058;8.688;2022-11-20T03:15:44;16.52;;;10.10;;
3747;SDS011;1889;50.058;8.688;2022-11-20T03:18:13;16.00;;;10.28;;
3747;SDS011;1889;50.058;8.688;2022-11-20T03:20:42;19.70;;;10.43;;
3747;SDS011;1889;50.058;8.688;2022-11-20T03:23:12;18.95;;;10.72;;
3747;SDS011;1889;50.058;8.688;2022-11-20T03:25:41;16.77;;;9.58;;
3747;SDS011;1889;50.058;8.688;2022-11-20T03:28:10;17.12;;;9.48;;
3747;SDS011;1889;50.058;8.688;2022-11-20T03:30:41;17.95;;;10.43;;
3747;SDS011;1889;50.058;8.688;2022-11-20T03:33:10;17.02;;;10.48;;
3747;SDS011;1889;50.058;8.688;2022-11-20T03:35:40;17.55;;;10.43;;
3747;SDS011;1889;50.058;8.688;2022-11-20T03:38:09;16.93;;;10.78;;
3747;SDS011;1889;50.058;8.688;2022-11-20T03:40:38;16.15;;;10.30;;
3747;SDS011;1889;50.058;8.688;2022-11-20T03:43:09;18.12;;;10.68;;
3747;SDS011;1889;50.058;8.688;2022-11-20T03:45:38;19.10;;;10.90;;
3747;SDS011;1889;50.058;8.688;2022-11-20T03:48:07;18.27;;;10.20;;
3747;SDS011;1889;50.058;8.688;2022-11-20T03:50:37;20.02;;;11.53;;
3747;SDS011;1889;50.058;8.688;2022-11-20T03:53:06;18.12;;;11.05;;
3747;SDS011;1889;50.058;8.688;2022-11-20T03:55:35;19.35;;;11.38;;
3747;SDS011;1889;50.058;8.688;2022-11-20T03:58:05;20.30;;;11.10;;
3747;SDS011;1889;50.058;8.688;2022-11-20T04:00:34;18.25;;;10.90;;
3747;SDS011;1889;50.058;8.688;2022-11-20T04:03:03;18.85;;;10.65;;
3747;SDS011;1889;50.058;8.688;2022-11-20T04:05:33;16.73;;;11.20;;
3747;SDS011;1889;50.058;8.688;2022-11-20T04:08:03;16.95;;;11.78;;
3747;SDS011;1889;50.058;8.688;2022-11-20T04:10:32;17.52;;;11.12;;
3747;SDS011;1889;50.058;8.688;2022-11-20T04:13:02;17.92;;;11.35;;
3747;SDS011;1889;50.058;8.688;2022-11-20T04:15:31;17.57;;;10.35;;
3747;SDS011;1889;50.058;8.688;2022-11-20T04:18:00;19.70;;;11.88;;
3747;SDS011;1889;50.058;8.688;2022-11-20T04:20:30;17.98;;;12.03;;
3747;SDS011;1889;50.058;8.688;2022-11-20T04:22:59;16.95;;;10.68;;
3747;SDS011;1889;50.058;8.688;2022-11-20T04:25:28;15.68;;;9.20;;
3747;SDS011;1889;50.058;8.688;2022-11-20T04:27:58;19.80;;;11.28;;
3747;SDS011;1889;50.058;8.688;2022-11-20T04:30:27;16.65;;;9.73;;
3747;SDS011;1889;50.058;8.688;2022-11-20T04:32:56;20.72;;;11.40;;
3747;SDS011;1889;50.058;8.688;2022-11-20T04:35:26;16.50;;;10.35;;
3747;SDS011;1889;50.058;8.688;2022-11-20T04:37:55;20.12;;;11.03;;
3747;SDS011;1889;50.058;8.688;2022-11-20T04:40:24;18.17;;;11.05;;
3747;SDS011;1889;50.058;8.688;2022-11-20T04:42:54;20.00;;;11.30;;
3747;SDS011;1889;50.058;8.688;2022-11-20T04:45:23;18.95;;;10.90;;
3747;SDS011;1889;50.058;8.688;2022-11-20T04:47:53;16.75;;;10.70;;
3747;SDS011;1889;50.058;8.688;2022-11-20T04:50:22;16.32;;;10.53;;
3747;SDS011;1889;50.058;8.688;2022-11-20T04:52:51;21.73;;;11.20;;
3747;SDS011;1889;50.058;8.688;2022-11-20T04:55:21;17.55;;;10.48;;
3747;SDS011;1889;50.058;8.688;2022-11-20T04:57:50;19.67;;;11.25;;
3747;SDS011;1889;50.058;8.688;2022-11-20T05:00:19;18.20;;;10.93;;
3747;SDS011;1889;50.058;8.688;2022-11-20T05:02:49;22.60;;;11.25;;
3747;SDS011;1889;50.058;8.688;2022-11-20T05:05:18;20.35;;;11.78;;
3747;SDS011;1889;50.058;8.688;2022-11-20T05:07:47;19.37;;;11.45;;
3747;SDS011;1889;50.058;8.688;2022-11-20T05:10:17;19.23;;;10.98;;
3747;SDS011;1889;50.058;8.688;2022-11-20T05:12:46;19.25;;;11.57;;
3747;SDS011;1889;50.058;8.688;2022-11-20T05:15:15;19.62;;;11.35;;
3747;SDS011;1889;50.058;8.688;2022-11-20T05:17:53;20.10;;;11.53;;
3747;SDS011;1889;50.058;8.688;2022-11-20T05:20:19;20.80;;;11.03;;
3747;SDS011;1889;50.058;8.688;2022-11-20T05:22:48;22.50;;;12.20;;
3747;SDS011;1889;50.058;8.688;2022-11-20T05:25:18;18.42;;;10.88;;
3747;SDS011;1889;50.058;8.688;2022-11-20T05:27:47;21.27;;;11.28;;
3747;SDS011;1889;50.058;8.688;2022-11-20T05:30:16;20.40;;;12.07;;
3747;SDS011;1889;50.058;8.688;2022-11-20T05:32:46;23.77;;;11.85;;
3747;SDS011;1889;50.058;8.688;2022-11-20T05:35:15;21.50;;;12.23;;
3747;SDS011;1889;50.058;8.688;2022-11-20T05:37:44;20.10;;;11.35;;
3747;SDS011;1889;50.058;8.688;2022-11-20T05:40:14;22.80;;;12.33;;
3747;SDS011;1889;50.058;8.688;2022-11-20T05:42:43;22.82;;;12.37;;
3747;SDS011;1889;50.058;8.688;2022-11-20T05:45:12;22.65;;;12.10;;
3747;SDS011;1889;50.058;8.688;2022-11-20T05:47:42;21.15;;;11.38;;
3747;SDS011;1889;50.058;8.688;2022-11-20T05:50:11;18.27;;;10.63;;
3747;SDS011;1889;50.058;8.688;2022-11-20T05:52:42;19.00;;;11.60;;
3747;SDS011;1889;50.058;8.688;2022-11-20T05:55:11;21.00;;;11.97;;
3747;SDS011;1889;50.058;8.688;2022-11-20T05:57:40;22.80;;;11.75;;
3747;SDS011;1889;50.058;8.688;2022-11-20T06:00:10;21.30;;;11.00;;
3747;SDS011;1889;50.058;8.688;2022-11-20T06:02:39;21.48;;;11.90;;
3747;SDS011;1889;50.058;8.688;2022-11-20T06:05:09;20.00;;;11.65;;
3747;SDS011;1889;50.058;8.688;2022-11-20T06:07:45;24.12;;;12.78;;
3747;SDS011;1889;50.058;8.688;2022-11-20T06:10:10;23.12;;;12.37;;
3747;SDS011;1889;50.058;8.688;2022-11-20T06:12:39;20.50;;;12.25;;
3747;SDS011;1889;50.058;8.688;2022-11-20T06:15:09;25.17;;;13.48;;
3747;SDS011;1889;50.058;8.688;2022-11-20T06:17:40;21.50;;;12.30;;
3747;SDS011;1889;50.058;8.688;2022-11-20T06:20:09;23.07;;;12.88;;
3747;SDS011;1889;50.058;8.688;2022-11-20T06:22:39;21.17;;;11.68;;
3747;SDS011;1889;50.058;8.688;2022-11-20T06:25:08;21.27;;;11.22;;
3747;SDS011;1889;50.058;8.688;2022-11-20T06:27:37;21.65;;;11.60;;
3747;SDS011;1889;50.058;8.688;2022-11-20T06:30:07;23.32;;;11.50;;
3747;SDS011;1889;50.058;8.688;2022-11-20T06:32:37;22.05;;;11.80;;
3747;SDS011;1889;50.058;8.688;2022-11-20T06:35:06;19.70;;;10.38;;
3747;SDS011;1889;50.058;8.688;2022-11-20T06:37:36;21.48;;;11.22;;
3747;SDS011;1889;50.058;8.688;2022-11-20T06:40:05;21.70;;;12.63;;
3747;SDS011;1889;50.058;8.688;2022-11-20T06:42:35;21.00;;;11.22;;
3747;SDS011;1889;50.058;8.688;2022-11-20T06:45:05;21.30;;;12.23;;
3747;SDS011;1889;50.058;8.688;2022-11-20T06:47:35;23.02;;;11.40;;
3747;SDS011;1889;50.058;8.688;2022-11-20T06:50:04;20.90;;;11.25;;
3747;SDS011;1889;50.058;8.688;2022-11-20T06:52:34;23.10;;;13.00;;
3747;SDS011;1889;50.058;8.688;2022-11-20T06:55:03;23.73;;;11.97;;
3747;SDS011;1889;50.058;8.688;2022-11-20T06:57:33;19.55;;;11.08;;
3747;SDS011;1889;50.058;8.688;2022-11-20T07:00:02;25.15;;;12.47;;
3747;SDS011;1889;50.058;8.688;2022-11-20T07:02:32;20.85;;;10.88;;
3747;SDS011;1889;50.058;8.688;2022-11-20T07:05:02;19.07;;;10.75;;
3747;SDS011;1889;50.058;8.688;2022-11-20T07:07:31;16.48;;;10.50;;
3747;SDS011;1889;50.058;8.688;2022-11-20T07:10:00;20.00;;;10.53;;
3747;SDS011;1889;50.058;8.688;2022-11-20T07:12:30;19.92;;;11.10;;
3747;SDS011;1889;50.058;8.688;2022-11-20T07:14:59;21.37;;;11.50;;
3747;SDS011;1889;50.058;8.688;2022-11-20T07:17:29;21.65;;;11.18;;
3747;SDS011;1889;50.058;8.688;2022-11-20T07:19:58;22.27;;;11.00;;
3747;SDS011;1889;50.058;8.688;2022-11-20T07:22:27;21.73;;;10.88;;
3747;SDS011;1889;50.058;8.688;2022-11-20T07:24:57;21.77;;;11.78;;
3747;SDS011;1889;50.058;8.688;2022-11-20T07:27:26;21.33;;;11.63;;
3747;SDS011;1889;50.058;8.688;2022-11-20T07:29:56;23.47;;;11.75;;
3747;SDS011;1889;50.058;8.688;2022-11-20T07:32:25;23.65;;;11.30;;
3747;SDS011;1889;50.058;8.688;2022-11-20T07:34:54;23.52;;;12.50;;
3747;SDS011;1889;50.058;8.688;2022-11-20T07:37:24;26.27;;;12.73;;
3747;SDS011;1889;50.058;8.688;2022-11-20T07:39:53;21.40;;;11.33;;
3747;SDS011;1889;50.058;8.688;2022-11-20T07:42:22;20.50;;;11.85;;
3747;SDS011;1889;50.058;8.688;2022-11-20T07:44:52;21.27;;;11.75;;
3747;SDS011;1889;50.058;8.688;2022-11-20T07:47:21;21.93;;;11.43;;
3747;SDS011;1889;50.058;8.688;2022-11-20T07:49:50;19.95;;;11.12;;
3747;SDS011;1889;50.058;8.688;2022-11-20T07:52:20;20.15;;;11.48;;
3747;SDS011;1889;50.058;8.688;2022-11-20T07:54:49;20.12;;;9.85;;
3747;SDS011;1889;50.058;8.688;2022-11-20T07:57:18;18.92;;;10.32;;
3747;SDS011;1889;50.058;8.688;2022-11-20T07:59:48;16.02;;;8.58;;
3747;SDS011;1889;50.058;8.688;2022-11-20T08:02:17;17.50;;;9.93;;
3747;SDS011;1889;50.058;8.688;2022-11-20T08:04:46;18.57;;;10.32;;
3747;SDS011;1889;50.058;8.688;2022-11-20T08:07:16;14.13;;;9.00;;
3747;SDS011;1889;50.058;8.688;2022-11-20T08:09:46;15.83;;;9.45;;
3747;SDS011;1889;50.058;8.688;2022-11-20T08:12:19;14.15;;;9.13;;
3747;SDS011;1889;50.058;8.688;2022-11-20T08:15:07;16.23;;;9.45;;
3747;SDS011;1889;50.058;8.688;2022-11-20T08:17:37;17.23;;;10.00;;
3747;SDS011;1889;50.058;8.688;2022-11-20T08:20:06;16.20;;;9.43;;
3747;SDS011;1889;50.058;8.688;2022-11-20T08:22:36;17.67;;;9.25;;
3747;SDS011;1889;50.058;8.688;2022-11-20T08:25:05;16.48;;;9.98;;
3747;SDS011;1889;50.058;8.688;2022-11-20T08:27:35;13.65;;;8.73;;
3747;SDS011;1889;50.058;8.688;2022-11-20T08:30:05;19.12;;;10.10;;
3747;SDS011;1889;50.058;8.688;2022-11-20T08:32:34;16.12;;;9.40;;
3747;SDS011;1889;50.058;8.688;2022-11-20T08:35:05;16.17;;;9.75;;
3747;SDS011;1889;50.058;8.688;2022-11-20T08:37:34;15.63;;;9.43;;
3747;SDS011;1889;50.058;8.688;2022-11-20T08:40:05;19.12;;;10.88;;
3747;SDS011;1889;50.058;8.688;2022-11-20T08:42:36;16.52;;;10.15;;
3747;SDS011;1889;50.058;8.688;2022-11-20T08:45:05;17.80;;;9.75;;
3747;SDS011;1889;50.058;8.688;2022-11-20T08:47:35;15.38;;;9.88;;
3747;SDS011;1889;50.058;8.688;2022-11-20T08:50:04;18.30;;;11.05;;
3747;SDS011;1889;50.058;8.688;2022-11-20T08:52:34;15.43;;;9.68;;
3747;SDS011;1889;50.058;8.688;2022-11-20T08:55:04;21.42;;;11.28;;
3747;SDS011;1889;50.058;8.688;2022-11-20T08:57:40;18.87;;;10.75;;
3747;SDS011;1889;50.058;8.688;2022-11-20T09:00:06;17.85;;;10.82;;
3747;SDS011;1889;50.058;8.688;2022-11-20T09:02:36;15.00;;;9.35;;
3747;SDS011;1889;50.058;8.688;2022-11-20T09:05:06;16.02;;;9.63;;
3747;SDS011;1889;50.058;8.688;2022-11-20T09:07:35;17.67;;;10.00;;
3747;SDS011;1889;50.058;8.688;2022-11-20T09:10:05;15.48;;;9.80;;
3747;SDS011;1889;50.058;8.688;2022-11-20T09:12:35;17.30;;;9.78;;
3747;SDS011;1889;50.058;8.688;2022-11-20T09:15:04;16.70;;;10.08;;
3747;SDS011;1889;50.058;8.688;2022-11-20T09:17:34;17.27;;;10.45;;
3747;SDS011;1889;50.058;8.688;2022-11-20T09:20:03;18.52;;;10.15;;
3747;SDS011;1889;50.058;8.688;2022-11-20T09:22:33;17.32;;;10.82;;
3747;SDS011;1889;50.058;8.688;2022-11-20T09:25:03;18.37;;;10.55;;
3747;SDS011;1889;50.058;8.688;2022-11-20T09:27:32;17.80;;;9.98;;
3747;SDS011;1889;50.058;8.688;2022-11-20T09:30:03;19.55;;;10.78;;
3747;SDS011;1889;50.058;8.688;2022-11-20T09:32:32;20.08;;;12.23;;
3747;SDS011;1889;50.058;8.688;2022-11-20T09:35:02;17.27;;;10.55;;
3747;SDS011;1889;50.058;8.688;2022-11-20T09:37:31;20.72;;;12.68;;
3747;SDS011;1889;50.058;8.688;2022-11-20T09:40:01;19.20;;;11.28;;
3747;SDS011;1889;50.058;8.688;2022-11-20T09:42:32;20.68;;;13.08;;
3747;SDS011;1889;50.058;8.688;2022-11-20T09:45:20;21.97;;;12.65;;
3747;SDS011;1889;50.058;8.688;2022-11-20T09:48:01;18.73;;;11.03;;
3747;SDS011;1889;50.058;8.688;2022-11-20T09:50:42;19.27;;;11.50;;
3747;SDS011;1889;50.058;8.688;2022-11-20T09:53:11;20.70;;;12.13;;
3747;SDS011;1889;50.058;8.688;2022-11-20T09:55:40;19.70;;;11.25;;
3747;SDS011;1889;50.058;8.688;2022-11-20T09:58:14;21.05;;;12.78;;
3747;SDS011;1889;50.058;8.688;2022-11-20T10:00:43;17.95;;;10.85;;
3747;SDS011;1889;50.058;8.688;2022-11-20T10:03:21;18.50;;;11.10;;
3747;SDS011;1889;50.058;8.688;2022-11-20T10:05:49;18.67;;;11.78;;
3747;SDS011;1889;50.058;8.688;2022-11-20T10:08:28;18.05;;;11.12;;
3747;SDS011;1889;50.058;8.688;2022-11-20T10:11:00;20.37;;;12.40;;
3747;SDS011;1889;50.058;8.688;2022-11-20T10:13:40;20.60;;;12.33;;
3747;SDS011;1889;50.058;8.688;2022-11-20T10:16:26;19.95;;;11.85;;
3747;SDS011;1889;50.058;8.688;2022-11-20T10:21:56;18.73;;;10.45;;
3747;SDS011;1889;50.058;8.688;2022-11-20T10:24:44;19.05;;;10.63;;
3747;SDS011;1889;50.058;8.688;2022-11-20T10:32:46;17.55;;;10.70;;
3747;SDS011;1889;50.058;8.688;2022-11-20T10:38:31;19.20;;;10.93;;
3747;SDS011;1889;50.058;8.688;2022-11-20T10:40:56;20.00;;;11.93;;
3747;SDS011;1889;50.058;8.688;2022-11-20T10:43:32;21.07;;;11.78;;
3747;SDS011;1889;50.058;8.688;2022-11-20T10:46:10;17.25;;;10.63;;
3747;SDS011;1889;50.058;8.688;2022-11-20T10:48:35;20.15;;;11.10;;
3747;SDS011;1889;50.058;8.688;2022-11-20T10:51:15;19.12;;;10.23;;
3747;SDS011;1889;50.058;8.688;2022-11-20T11:02:18;17.17;;;10.88;;
3747;SDS011;1889;50.058;8.688;2022-11-20T11:04:49;17.42;;;9.33;;
3747;SDS011;1889;50.058;8.688;2022-11-20T11:07:35;16.82;;;10.60;;
3747;SDS011;1889;50.058;8.688;2022-11-20T11:10:17;17.57;;;10.88;;
3747;SDS011;1889;50.058;8.688;2022-11-20T11:12:49;18.80;;;11.22;;
3747;SDS011;1889;50.058;8.688;2022-11-20T11:18:08;16.93;;;10.08;;
3747;SDS011;1889;50.058;8.688;2022-11-20T11:20:39;17.67;;;10.32;;
3747;SDS011;1889;50.058;8.688;2022-11-20T11:23:22;16.23;;;10.65;;
3747;SDS011;1889;50.058;8.688;2022-11-20T11:25:55;15.78;;;9.60;;
3747;SDS011;1889;50.058;8.688;2022-11-20T11:28:19;18.77;;;10.82;;
3747;SDS011;1889;50.058;8.688;2022-11-20T11:30:52;16.45;;;10.68;;
3747;SDS011;1889;50.058;8.688;2022-11-20T11:33:31;18.90;;;10.93;;
3747;SDS011;1889;50.058;8.688;2022-11-20T11:36:03;12.73;;;8.55;;
3747;SDS011;1889;50.058;8.688;2022-11-20T11:38:41;15.03;;;9.25;;
3747;SDS011;1889;50.058;8.688;2022-11-20T11:41:21;18.20;;;10.70;;
3747;SDS011;1889;50.058;8.688;2022-11-20T11:43:54;19.98;;;10.25;;
3747;SDS011;1889;50.058;8.688;2022-11-20T11:46:39;15.80;;;8.73;;
3747;SDS011;1889;50.058;8.688;2022-11-20T11:49:16;13.00;;;9.08;;
3747;SDS011;1889;50.058;8.688;2022-11-20T11:51:55;14.47;;;9.13;;
3747;SDS011;1889;50.058;8.688;2022-11-20T11:57:26;16.75;;;10.40;;
3747;SDS011;1889;50.058;8.688;2022-11-20T12:02:57;16.35;;;9.93;;
3747;SDS011;1889;50.058;8.688;2022-11-20T12:13:55;16.90;;;10.53;;
3747;SDS011;1889;50.058;8.688;2022-11-20T12:16:27;15.00;;;8.60;;
3747;SDS011;1889;50.058;8.688;2022-11-20T12:19:03;14.83;;;9.28;;
3747;SDS011;1889;50.058;8.688;2022-11-20T12:21:55;14.10;;;9.38;;
3747;SDS011;1889;50.058;8.688;2022-11-20T12:27:28;17.32;;;9.58;;
3747;SDS011;1889;50.058;8.688;2022-11-20T12:30:08;14.70;;;9.55;;
3747;SDS011;1889;50.058;8.688;2022-11-20T12:35:26;16.60;;;9.65;;
3747;SDS011;1889;50.058;8.688;2022-11-20T12:38:13;14.45;;;9.98;;
3747;SDS011;1889;50.058;8.688;2022-11-20T12:40:44;14.25;;;9.15;;
3747;SDS011;1889;50.058;8.688;2022-11-20T12:43:25;15.20;;;8.78;;
3747;SDS011;1889;50.058;8.688;2022-11-20T12:46:18;14.55;;;9.38;;
3747;SDS011;1889;50.058;8.688;2022-11-20T12:51:52;15.58;;;9.28;;
3747;SDS011;1889;50.058;8.688;2022-11-20T12:54:35;14.60;;;9.10;;
3747;SDS011;1889;50.058;8.688;2022-11-20T12:57:07;14.10;;;8.98;;
3747;SDS011;1889;50.058;8.688;2022-11-20T13:05:37;18.50;;;11.05;;
3747;SDS011;1889;50.058;8.688;2022-11-20T13:08:22;16.77;;;9.43;;
3747;SDS011;1889;50.058;8.688;2022-11-20T13:10:47;12.10;;;8.70;;
3747;SDS011;1889;50.058;8.688;2022-11-20T13:14:07;14.43;;;8.80;;
3747;SDS011;1889;50.058;8.688;2022-11-20T13:16:30;15.00;;;8.80;;
3747;SDS011;1889;50.058;8.688;2022-11-20T13:19:01;14.00;;;8.53;;
3747;SDS011;1889;50.058;8.688;2022-11-20T13:21:41;18.62;;;11.65;;
3747;SDS011;1889;50.058;8.688;2022-11-20T13:27:03;16.27;;;10.18;;
3747;SDS011;1889;50.058;8.688;2022-11-20T13:29:37;13.98;;;8.90;;
3747;SDS011;1889;50.058;8.688;2022-11-20T13:32:20;13.95;;;8.53;;
3747;SDS011;1889;50.058;8.688;2022-11-20T13:34:56;14.10;;;8.58;;
3747;SDS011;1889;50.058;8.688;2022-11-20T13:37:35;13.20;;;8.58;;
3747;SDS011;1889;50.058;8.688;2022-11-20T13:42:53;12.80;;;8.33;;
3747;SDS011;1889;50.058;8.688;2022-11-20T13:45:26;13.30;;;8.65;;
3747;SDS011;1889;50.058;8.688;2022-11-20T13:48:01;13.22;;;8.53;;
3747;SDS011;1889;50.058;8.688;2022-11-20T13:50:40;14.93;;;8.88;;
3747;SDS011;1889;50.058;8.688;2022-11-20T13:53:33;14.33;;;9.00;;
3747;SDS011;1889;50.058;8.688;2022-11-20T13:56:05;14.87;;;8.70;;
3747;SDS011;1889;50.058;8.688;2022-11-20T14:01:20;12.43;;;8.28;;
3747;SDS011;1889;50.058;8.688;2022-11-20T14:03:49;13.90;;;9.38;;
3747;SDS011;1889;50.058;8.688;2022-11-20T14:06:25;12.88;;;9.73;;
3747;SDS011;1889;50.058;8.688;2022-11-20T14:08:55;16.37;;;9.63;;
3747;SDS011;1889;50.058;8.688;2022-11-20T14:11:26;12.80;;;8.48;;
3747;SDS011;1889;50.058;8.688;2022-11-20T14:16:48;13.98;;;9.55;;
3747;SDS011;1889;50.058;8.688;2022-11-20T14:21:54;13.72;;;10.05;;
3747;SDS011;1889;50.058;8.688;2022-11-20T14:24:42;12.75;;;9.18;;
3747;SDS011;1889;50.058;8.688;2022-11-20T14:27:14;13.88;;;9.23;;
3747;SDS011;1889;50.058;8.688;2022-11-20T14:29:48;11.73;;;8.18;;
3747;SDS011;1889;50.058;8.688;2022-11-20T14:32:19;14.45;;;9.05;;
3747;SDS011;1889;50.058;8.688;2022-11-20T14:34:50;13.80;;;8.48;;
3747;SDS011;1889;50.058;8.688;2022-11-20T14:37:21;13.22;;;8.78;;
3747;SDS011;1889;50.058;8.688;2022-11-20T14:39:53;13.58;;;9.08;;
3747;SDS011;1889;50.058;8.688;2022-11-20T14:42:26;11.40;;;8.18;;
3747;SDS011;1889;50.058;8.688;2022-11-20T14:44:58;14.25;;;7.80;;
3747;SDS011;1889;50.058;8.688;2022-11-20T14:47:29;14.63;;;9.63;;
3747;SDS011;1889;50.058;8.688;2022-11-20T14:50:00;13.53;;;9.03;;
3747;SDS011;1889;50.058;8.688;2022-11-20T14:52:30;11.15;;;8.13;;
3747;SDS011;1889;50.058;8.688;2022-11-20T14:54:59;11.63;;;7.80;;
3747;SDS011;1889;50.058;8.688;2022-11-20T14:57:29;11.80;;;8.18;;
3747;SDS011;1889;50.058;8.688;2022-11-20T15:00:03;13.90;;;9.03;;
3747;SDS011;1889;50.058;8.688;2022-11-20T15:02:47;13.65;;;8.30;;
3747;SDS011;1889;50.058;8.688;2022-11-20T15:05:19;12.55;;;7.55;;
3747;SDS011;1889;50.058;8.688;2022-11-20T15:07:51;11.28;;;7.83;;
3747;SDS011;1889;50.058;8.688;2022-11-20T15:10:23;13.25;;;8.53;;
3747;SDS011;1889;50.058;8.688;2022-11-20T15:12:55;14.98;;;9.60;;
3747;SDS011;1889;50.058;8.688;2022-11-20T15:15:36;13.15;;;8.45;;
3747;SDS011;1889;50.058;8.688;2022-11-20T15:18:14;13.65;;;8.23;;
3747;SDS011;1889;50.058;8.688;2022-11-20T15:20:46;14.35;;;9.05;;
3747;SDS011;1889;50.058;8.688;2022-11-20T15:23:16;14.38;;;8.60;;
3747;SDS011;1889;50.058;8.688;2022-11-20T15:25:47;14.60;;;8.75;;
3747;SDS011;1889;50.058;8.688;2022-11-20T15:30:55;14.20;;;8.88;;
3747;SDS011;1889;50.058;8.688;2022-11-20T15:33:24;17.60;;;10.13;;
3747;SDS011;1889;50.058;8.688;2022-11-20T15:35:54;13.32;;;8.78;;
3747;SDS011;1889;50.058;8.688;2022-11-20T15:38:23;14.43;;;8.60;;
3747;SDS011;1889;50.058;8.688;2022-11-20T15:40:52;14.35;;;9.10;;
3747;SDS011;1889;50.058;8.688;2022-11-20T15:43:22;14.33;;;8.78;;
3747;SDS011;1889;50.058;8.688;2022-11-20T15:45:55;14.55;;;9.20;;
3747;SDS011;1889;50.058;8.688;2022-11-20T15:48:27;12.13;;;7.95;;
3747;SDS011;1889;50.058;8.688;2022-11-20T15:51:01;11.85;;;8.23;;
3747;SDS011;1889;50.058;8.688;2022-11-20T15:53:38;15.13;;;8.78;;
3747;SDS011;1889;50.058;8.688;2022-11-20T15:56:10;12.40;;;8.43;;
3747;SDS011;1889;50.058;8.688;2022-11-20T15:58:41;14.70;;;9.13;;
3747;SDS011;1889;50.058;8.688;2022-11-20T16:01:16;14.90;;;8.80;;
3747;SDS011;1889;50.058;8.688;2022-11-20T16:03:42;12.33;;;8.13;;
3747;SDS011;1889;50.058;8.688;2022-11-20T16:06:12;14.53;;;8.88;;
3747;SDS011;1889;50.058;8.688;2022-11-20T16:08:43;15.10;;;9.25;;
3747;SDS011;1889;50.058;8.688;2022-11-20T16:11:13;16.37;;;9.08;;
3747;SDS011;1889;50.058;8.688;2022-11-20T16:13:46;12.18;;;8.45;;
3747;SDS011;1889;50.058;8.688;2022-11-20T16:16:34;13.28;;;9.20;;
3747;SDS011;1889;50.058;8.688;2022-11-20T16:19:05;14.38;;;9.40;;
3747;SDS011;1889;50.058;8.688;2022-11-20T16:21:36;15.13;;;9.35;;
3747;SDS011;1889;50.058;8.688;2022-11-20T16:24:15;15.13;;;9.28;;
3747;SDS011;1889;50.058;8.688;2022-11-20T16:26:40;13.43;;;7.83;;
3747;SDS011;1889;50.058;8.688;2022-11-20T16:29:09;12.25;;;8.03;;
3747;SDS011;1889;50.058;8.688;2022-11-20T16:31:39;11.57;;;7.62;;
3747;SDS011;1889;50.058;8.688;2022-11-20T16:34:08;14.13;;;8.73;;